KCVS/CVS METAR and TAF weather

Enter ICAO airport designator
Station Type Date Time Source
KCVS METAR 2021/08/01 14:58 UTC NOAA

KCVS 011458Z AUTO 05011KT 10SM OVC015 22/19 A3032 RMK AO2 SLP212 T02190191 52015 $


Station Type Date Time Source
KCVS Decoded METAR 2021/08/01 14:58 UTC NOAA

Cannon Air Force Base / Clovis, NM, United States (KCVS) 34-23N 103-19W
Aug 01, 2021 - 10:58 AM EDT / 2021.08.01 1458 UTC
Wind: from the NE (050 degrees) at 13 MPH (11 KT):0
Visibility: 10 mile(s):0
Sky conditions: overcast
Temperature: 71.4 F (21.9 C)
Dew Point: 66.4 F (19.1 C)
Relative Humidity: 84%
Pressure (altimeter): 30.32 in. Hg (1026 hPa)
Pressure tendency: 0.04 inches (1.5 hPa) higher than three hours ago
ob: KCVS 011458Z AUTO 05011KT 10SM OVC015 22/19 A3032 RMK AO2 SLP212 T02190191 52015
cycle: 15

Station Type Date Time Source
KCVS TAF 2021/08/01 10:59 UTC NOAA

TAF KCVS 011000Z 0110/0216 03012KT 9999 SCT080 QNH3020INS
BECMG 0114/0115 08010G15KT 9999 SCT070 QNH3026INS
BECMG 0119/0120 05015G20KT 9000 SHRA OVC010 QNH3025INS
BECMG 0203/0204 09010KT 9999 NSW OVC010 QNH3030INS
BECMG 0211/0212 VRB06KT 9999 OVC040 QNH3030INS
BECMG 0214/0215 15010G15KT 9999 SCT080 QNH3029INS TX23/0121Z TN20/0112Z

Example: see airport list